createdAt,value
2022-08-21T00:01:59.454Z,100846.25
2022-08-21T00:04:29.517Z,100842.91
2022-08-21T00:07:01.018Z,100841.81
2022-08-21T00:09:29.580Z,100851.78
2022-08-21T00:11:57.665Z,100838.69
2022-08-21T00:14:26.758Z,100839.22
2022-08-21T00:17:00.213Z,100839.16
2022-08-21T00:19:29.985Z,100841.91
2022-08-21T00:22:11.254Z,100847.88
2022-08-21T00:24:40.938Z,100851.03
2022-08-21T00:27:09.656Z,100847.81
2022-08-21T00:29:38.465Z,100853.00
2022-08-21T00:32:06.705Z,100835.09
2022-08-21T00:34:35.670Z,100839.81
2022-08-21T00:37:03.730Z,100831.19
2022-08-21T00:39:32.910Z,100832.84
2022-08-21T00:42:00.500Z,100828.84
2022-08-21T00:44:28.680Z,100832.31
2022-08-21T00:46:57.478Z,100838.16
2022-08-21T00:49:25.839Z,100839.59
2022-08-21T00:52:01.089Z,100837.19
2022-08-21T00:54:32.756Z,100842.97
2022-08-21T00:57:05.965Z,100837.06
2022-08-21T00:59:38.501Z,100826.47
2022-08-21T01:02:09.251Z,100824.88
2022-08-21T01:04:37.787Z,100824.78
2022-08-21T01:07:07.488Z,100818.41
2022-08-21T01:09:36.692Z,100817.19
2022-08-21T01:12:06.268Z,100821.16
2022-08-21T01:14:34.039Z,100812.16
2022-08-21T01:17:04.517Z,100817.81
2022-08-21T01:19:32.865Z,100817.47
2022-08-21T01:22:01.815Z,100819.34
2022-08-21T01:24:29.980Z,100813.81
2022-08-21T01:26:57.862Z,100818.06
2022-08-21T01:29:44.393Z,100805.53
2022-08-21T01:32:16.859Z,100798.81
2022-08-21T01:34:49.178Z,100798.22
2022-08-21T01:37:20.453Z,100794.28
2022-08-21T01:39:50.250Z,100788.25
2022-08-21T01:42:19.041Z,100796.78
2022-08-21T01:44:47.754Z,100797.94
2022-08-21T01:47:17.598Z,100795.50
2022-08-21T01:49:46.755Z,100800.47
2022-08-21T01:52:15.532Z,100796.44
2022-08-21T01:54:44.831Z,100803.72
2022-08-21T01:57:14.528Z,100804.41
2022-08-21T01:59:43.244Z,100813.84
2022-08-21T02:02:11.774Z,100813.09
2022-08-21T02:04:40.911Z,100811.88
2022-08-21T02:07:08.689Z,100805.19
2022-08-21T02:09:40.276Z,100810.84
2022-08-21T02:12:09.017Z,100807.09
2022-08-21T02:14:38.583Z,100808.94
2022-08-21T02:17:09.489Z,100816.66
2022-08-21T02:19:40.140Z,100813.31
2022-08-21T02:22:11.167Z,100818.34
2022-08-21T02:24:55.060Z,100812.56
2022-08-21T02:27:27.560Z,100817.66
2022-08-21T02:29:58.105Z,100811.84
2022-08-21T02:32:27.396Z,100814.31
2022-08-21T02:34:55.886Z,100813.84
2022-08-21T02:37:25.663Z,100818.63
2022-08-21T02:39:54.865Z,100821.81
2022-08-21T02:42:23.785Z,100821.22
2022-08-21T02:44:52.547Z,100821.66
2022-08-21T02:47:20.620Z,100821.72
2022-08-21T02:49:49.346Z,100832.53
2022-08-21T02:52:17.727Z,100832.97
2022-08-21T02:54:47.040Z,100839.78
2022-08-21T02:57:14.713Z,100839.78
2022-08-21T02:59:43.363Z,100837.63
2022-08-21T03:02:12.816Z,100850.75
2022-08-21T03:04:46.419Z,100846.88
2022-08-21T03:07:14.631Z,100847.47
2022-08-21T03:09:55.391Z,100856.09
2022-08-21T03:12:26.657Z,100868.69
2022-08-21T03:14:59.302Z,100863.22
2022-08-21T03:17:29.388Z,100862.16
2022-08-21T03:19:59.169Z,100873.34
2022-08-21T03:22:28.554Z,100864.56
2022-08-21T03:24:59.324Z,100865.38
2022-08-21T03:27:29.816Z,100865.72
2022-08-21T03:29:58.942Z,100870.94
2022-08-21T03:32:28.840Z,100862.56
2022-08-21T03:34:56.763Z,100860.41
2022-08-21T03:37:25.829Z,100855.25
2022-08-21T03:39:53.805Z,100863.06
2022-08-21T03:42:22.199Z,100870.81
2022-08-21T03:44:51.289Z,100860.22
2022-08-21T03:47:19.802Z,100862.88
2022-08-21T03:49:49.226Z,100864.41
2022-08-21T03:52:18.421Z,100865.13
2022-08-21T03:54:47.583Z,100861.38
2022-08-21T03:57:15.684Z,100864.59
2022-08-21T03:59:44.427Z,100857.31
2022-08-21T04:02:18.166Z,100854.75
2022-08-21T04:04:46.756Z,100856.25
2022-08-21T04:07:14.634Z,100864.91
2022-08-21T04:09:43.699Z,100863.56
2022-08-21T04:12:11.871Z,100873.13
2022-08-21T04:14:39.629Z,100876.56
2022-08-21T04:17:08.149Z,100879.16
2022-08-21T04:19:37.532Z,100879.56
2022-08-21T04:22:05.951Z,100872.19
2022-08-21T04:24:36.663Z,100879.38
2022-08-21T04:27:04.836Z,100884.22
2022-08-21T04:29:37.141Z,100869.16
2022-08-21T04:32:07.730Z,100873.00
2022-08-21T04:34:36.684Z,100877.84
2022-08-21T04:37:05.227Z,100865.78
2022-08-21T04:39:35.081Z,100868.34
2022-08-21T04:42:03.706Z,100868.78
2022-08-21T04:44:35.056Z,100872.16
2022-08-21T04:47:03.970Z,100862.22
2022-08-21T04:49:35.130Z,100867.84
2022-08-21T04:52:04.736Z,100860.41
2022-08-21T04:54:32.484Z,100859.25
2022-08-21T04:57:08.400Z,100846.78
2022-08-21T04:59:45.987Z,100851.09
2022-08-21T05:02:15.150Z,100854.63
2022-08-21T05:04:49.906Z,100847.28
2022-08-21T05:07:42.446Z,100855.34
2022-08-21T05:10:13.987Z,100846.47
2022-08-21T05:12:45.480Z,100849.91
2022-08-21T05:15:14.004Z,100840.19
2022-08-21T05:17:43.182Z,100850.22
2022-08-21T05:20:13.613Z,100839.66
2022-08-21T05:22:42.694Z,100841.06
2022-08-21T05:25:11.418Z,100825.28
2022-08-21T05:27:44.167Z,100831.78
2022-08-21T05:30:12.919Z,100836.66
2022-08-21T05:32:43.835Z,100838.16
2022-08-21T05:35:12.433Z,100821.91
2022-08-21T05:37:41.630Z,100827.53
2022-08-21T05:40:21.252Z,100832.06
2022-08-21T05:42:55.595Z,100826.66
2022-08-21T05:45:42.707Z,100835.03
2022-08-21T05:48:17.108Z,100835.75
2022-08-21T05:50:47.709Z,100836.28
2022-08-21T05:53:19.850Z,100840.16
2022-08-21T05:55:49.590Z,100843.81
2022-08-21T05:58:20.236Z,100841.84
2022-08-21T06:00:51.137Z,100843.97
2022-08-21T06:03:23.582Z,100843.72
2022-08-21T06:05:54.018Z,100841.91
2022-08-21T06:08:23.780Z,100847.31
2022-08-21T06:10:53.691Z,100846.00
2022-08-21T06:13:23.529Z,100844.44
2022-08-21T06:16:01.568Z,100847.00
2022-08-21T06:18:30.582Z,100854.22
2022-08-21T06:20:58.767Z,100846.03
2022-08-21T06:23:39.158Z,100843.44
2022-08-21T06:26:16.080Z,100849.84
2022-08-21T06:28:45.226Z,100843.19
2022-08-21T06:31:17.574Z,100842.72
2022-08-21T06:33:46.912Z,100837.81
2022-08-21T06:36:20.422Z,100843.00
2022-08-21T06:38:51.242Z,100838.63
2022-08-21T06:41:24.040Z,100836.41
2022-08-21T06:43:52.954Z,100827.38
2022-08-21T06:46:22.271Z,100832.56
2022-08-21T06:48:50.762Z,100830.13
2022-08-21T06:51:20.355Z,100834.00
2022-08-21T06:53:50.553Z,100827.97
2022-08-21T06:56:21.781Z,100833.47
2022-08-21T06:58:51.523Z,100834.59
2022-08-21T07:01:24.888Z,100840.16
2022-08-21T07:03:54.838Z,100829.09
2022-08-21T07:06:22.864Z,100836.00
2022-08-21T07:08:52.006Z,100845.94
2022-08-21T07:11:24.591Z,100842.09
2022-08-21T07:13:55.442Z,100835.75
2022-08-21T07:16:24.265Z,100842.88
2022-08-21T07:18:53.010Z,100846.19
2022-08-21T07:21:26.261Z,100840.16
2022-08-21T07:23:55.303Z,100832.97
2022-08-21T07:26:25.257Z,100840.41
2022-08-21T07:28:54.732Z,100834.06
2022-08-21T07:31:25.939Z,100835.69
2022-08-21T07:33:53.724Z,100835.69
2022-08-21T07:36:21.845Z,100832.59
2022-08-21T07:38:53.160Z,100842.53
2022-08-21T07:41:29.710Z,100838.59
2022-08-21T07:44:01.311Z,100825.00
2022-08-21T07:46:30.235Z,100825.00
2022-08-21T07:48:58.761Z,100821.13
2022-08-21T07:51:29.558Z,100823.41
2022-08-21T07:54:00.506Z,100818.38
2022-08-21T07:56:31.442Z,100827.66
2022-08-21T07:58:59.832Z,100816.34
2022-08-21T08:01:29.152Z,100820.41
2022-08-21T08:03:57.796Z,100816.84
2022-08-21T08:06:27.278Z,100825.59
2022-08-21T08:08:58.546Z,100818.63
2022-08-21T08:11:27.471Z,100821.06
2022-08-21T08:13:59.174Z,100828.72
2022-08-21T08:16:28.019Z,100826.81
2022-08-21T08:18:57.121Z,100829.06
2022-08-21T08:21:25.710Z,100825.44
2022-08-21T08:23:54.707Z,100834.00
2022-08-21T08:26:25.709Z,100832.72
2022-08-21T08:28:54.901Z,100839.91
2022-08-21T08:31:25.122Z,100831.66
2022-08-21T08:33:54.139Z,100836.09
2022-08-21T08:36:33.910Z,100839.41
2022-08-21T08:39:07.019Z,100840.47
2022-08-21T08:41:39.278Z,100842.69
2022-08-21T08:44:12.460Z,100847.06
2022-08-21T08:46:45.572Z,100848.22
2022-08-21T08:49:39.386Z,100843.84
2022-08-21T08:52:18.474Z,100842.69
2022-08-21T08:54:57.207Z,100832.28
2022-08-21T08:57:26.365Z,100835.69
2022-08-21T09:00:02.547Z,100823.06
2022-08-21T09:02:32.044Z,100822.13
2022-08-21T09:05:03.268Z,100815.91
2022-08-21T09:07:57.727Z,100805.34
2022-08-21T09:10:48.362Z,100790.38
2022-08-21T09:14:16.419Z,100776.16
2022-08-21T09:16:51.559Z,100787.75
2022-08-21T09:19:46.229Z,100775.84
2022-08-21T09:22:47.978Z,100779.06
2022-08-21T09:25:25.545Z,100772.41
2022-08-21T09:27:58.017Z,100772.63
2022-08-21T09:30:33.350Z,100756.81
2022-08-21T09:33:01.852Z,100741.28
2022-08-21T09:35:30.960Z,100754.47
2022-08-21T09:38:06.763Z,100743.81
2022-08-21T09:40:48.055Z,100744.97
2022-08-21T09:43:22.979Z,100749.91
2022-08-21T09:46:05.990Z,100745.19
2022-08-21T09:49:14.865Z,100741.13
2022-08-21T09:51:55.529Z,100749.25
2022-08-21T09:54:31.421Z,100755.53
2022-08-21T10:00:38.231Z,100753.69
2022-08-21T10:03:26.099Z,100762.28
2022-08-21T10:06:11.028Z,100764.53
2022-08-21T10:08:47.534Z,100765.19
2022-08-21T10:11:28.644Z,100779.50
2022-08-21T10:14:16.158Z,100764.13
2022-08-21T10:17:09.273Z,100765.16
2022-08-21T10:19:57.214Z,100770.81
2022-08-21T10:22:31.237Z,100763.69
2022-08-21T10:25:11.805Z,100767.28
2022-08-21T10:27:57.866Z,100763.38
2022-08-21T10:30:25.648Z,100755.16
2022-08-21T10:33:19.540Z,100762.75
2022-08-21T10:36:21.415Z,100755.06
2022-08-21T10:39:23.821Z,100764.31
2022-08-21T10:42:28.308Z,100753.19
2022-08-21T10:45:03.637Z,100762.75
2022-08-21T10:47:43.184Z,100750.38
2022-08-21T10:50:39.401Z,100746.41
2022-08-21T10:53:18.232Z,100745.03
2022-08-21T10:56:14.863Z,100745.47
2022-08-21T10:58:51.914Z,100740.91
2022-08-21T11:01:49.191Z,100725.13
2022-08-21T11:04:48.994Z,100734.06
2022-08-21T11:07:40.856Z,100731.81
2022-08-21T11:10:22.407Z,100737.00
2022-08-21T11:13:06.870Z,100734.22
2022-08-21T11:15:45.414Z,100723.75
2022-08-21T11:18:31.067Z,100712.53
2022-08-21T11:21:32.944Z,100712.06
2022-08-21T11:24:23.309Z,100714.50
2022-08-21T11:26:53.478Z,100716.66
2022-08-21T11:29:35.865Z,100712.06
2022-08-21T11:32:58.412Z,100714.22
2022-08-21T11:35:38.248Z,100713.97
2022-08-21T11:38:29.217Z,100712.47
2022-08-21T11:41:01.364Z,100698.84
2022-08-21T11:43:43.805Z,100706.25
2022-08-21T11:46:30.762Z,100702.75
2022-08-21T11:49:28.608Z,100709.38
2022-08-21T11:52:21.974Z,100711.91
2022-08-21T11:54:55.767Z,100698.88
2022-08-21T11:57:33.866Z,100709.19
2022-08-21T12:00:12.698Z,100707.19
2022-08-21T12:02:51.906Z,100708.59
2022-08-21T12:05:34.279Z,100709.22
2022-08-21T12:08:27.255Z,100713.47
2022-08-21T12:11:30.852Z,100718.44
2022-08-21T12:14:15.170Z,100713.94
2022-08-21T12:16:49.108Z,100726.03
2022-08-21T12:19:20.783Z,100721.84
2022-08-21T12:22:06.797Z,100721.72
2022-08-21T12:24:51.212Z,100722.16
2022-08-21T12:27:27.461Z,100707.84
2022-08-21T12:29:59.978Z,100719.00
2022-08-21T12:32:32.307Z,100710.47
2022-08-21T12:35:29.148Z,100720.47
2022-08-21T12:38:14.295Z,100708.22
2022-08-21T12:40:52.339Z,100708.03
2022-08-21T12:43:28.877Z,100704.94
2022-08-21T12:45:57.907Z,100711.78
2022-08-21T12:48:36.490Z,100705.63
2022-08-21T12:51:11.073Z,100707.47
2022-08-21T12:53:56.822Z,100697.53
2022-08-21T12:56:30.613Z,100707.38
2022-08-21T12:59:12.410Z,100700.28
2022-08-21T13:01:49.247Z,100700.91
2022-08-21T13:04:23.196Z,100700.69
2022-08-21T13:06:54.762Z,100702.63
2022-08-21T13:09:30.842Z,100695.88
2022-08-21T13:12:02.005Z,100700.72
2022-08-21T13:14:47.857Z,100708.88
2022-08-21T13:17:25.667Z,100710.25
2022-08-21T13:20:00.805Z,100708.75
2022-08-21T13:22:35.118Z,100708.81
2022-08-21T13:25:10.491Z,100707.69
2022-08-21T13:27:41.297Z,100707.94
2022-08-21T13:30:16.844Z,100713.84
2022-08-21T13:32:53.598Z,100707.69
2022-08-21T13:35:36.956Z,100707.28
2022-08-21T13:38:07.120Z,100710.41
2022-08-21T13:40:58.179Z,100715.28
2022-08-21T13:43:37.767Z,100711.19
2022-08-21T13:46:16.741Z,100706.34
2022-08-21T13:48:44.757Z,100705.78
2022-08-21T13:51:13.738Z,100706.50
2022-08-21T13:53:47.641Z,100709.91
2022-08-21T13:56:45.022Z,100699.94
2022-08-21T13:59:26.702Z,100707.50
2022-08-21T14:02:18.272Z,100708.63
2022-08-21T14:05:02.314Z,100702.91
2022-08-21T14:07:42.111Z,100705.94
2022-08-21T14:10:26.415Z,100687.91
2022-08-21T14:13:02.839Z,100688.22
2022-08-21T14:15:35.491Z,100683.53
2022-08-21T14:18:19.486Z,100680.59
2022-08-21T14:20:48.922Z,100677.03
2022-08-21T14:23:27.770Z,100671.06
2022-08-21T14:26:01.639Z,100666.06
2022-08-21T14:28:49.113Z,100669.91
2022-08-21T14:31:22.612Z,100668.38
2022-08-21T14:33:52.151Z,100665.06
2022-08-21T14:36:20.958Z,100667.09
2022-08-21T14:38:50.159Z,100657.59
2022-08-21T14:41:26.281Z,100673.72
2022-08-21T14:44:06.031Z,100672.69
2022-08-21T14:46:55.332Z,100681.84
2022-08-21T14:49:29.443Z,100680.22
2022-08-21T14:51:59.567Z,100678.19
2022-08-21T14:54:33.830Z,100669.41
2022-08-21T14:57:13.826Z,100669.41
2022-08-21T14:59:43.374Z,100671.13
2022-08-21T15:02:12.103Z,100672.47
2022-08-21T15:04:40.834Z,100667.03
2022-08-21T15:07:09.828Z,100675.31
2022-08-21T15:09:39.866Z,100665.34
2022-08-21T15:12:08.810Z,100660.00
2022-08-21T15:14:43.728Z,100674.16
2022-08-21T15:17:13.436Z,100668.72
2022-08-21T15:19:42.583Z,100673.72
2022-08-21T15:22:18.750Z,100672.34
2022-08-21T15:24:49.863Z,100671.50
2022-08-21T15:27:19.957Z,100665.91
2022-08-21T15:32:33.095Z,100672.09
2022-08-21T15:35:03.589Z,100670.75
2022-08-21T15:37:32.115Z,100673.03
2022-08-21T15:40:01.598Z,100670.94
2022-08-21T15:42:32.109Z,100678.22
2022-08-21T15:45:07.616Z,100678.69
2022-08-21T15:47:39.021Z,100684.59
2022-08-21T15:50:11.251Z,100682.13
2022-08-21T15:52:41.463Z,100682.53
2022-08-21T15:55:14.443Z,100672.03
2022-08-21T15:57:58.175Z,100674.06
2022-08-21T16:00:38.409Z,100673.34
2022-08-21T16:03:13.152Z,100668.94
2022-08-21T16:05:49.520Z,100678.91
2022-08-21T16:08:19.369Z,100669.88
2022-08-21T16:10:50.829Z,100675.97
2022-08-21T16:16:30.145Z,100671.31
2022-08-21T16:19:00.864Z,100666.75
2022-08-21T16:21:30.052Z,100664.84
2022-08-21T16:23:59.405Z,100666.59
2022-08-21T16:26:30.875Z,100668.81
2022-08-21T16:29:07.601Z,100662.47
2022-08-21T16:31:36.746Z,100670.19
2022-08-21T16:34:05.075Z,100668.66
2022-08-21T16:36:34.884Z,100667.03
2022-08-21T16:39:04.761Z,100670.63
2022-08-21T16:41:36.051Z,100666.81
2022-08-21T16:44:11.513Z,100672.41
2022-08-21T16:47:06.480Z,100669.94
2022-08-21T16:49:46.884Z,100670.78
2022-08-21T16:52:19.360Z,100670.22
2022-08-21T16:54:51.173Z,100677.22
2022-08-21T16:57:34.091Z,100674.19
2022-08-21T17:00:08.566Z,100664.81
2022-08-21T17:02:40.139Z,100672.00
2022-08-21T17:05:14.064Z,100671.25
2022-08-21T17:07:48.927Z,100669.84
2022-08-21T17:10:21.827Z,100677.56
2022-08-21T17:13:14.123Z,100672.69
2022-08-21T17:15:59.589Z,100675.97
2022-08-21T17:34:53.877Z,100678.50
2022-08-21T17:37:26.257Z,100669.13
2022-08-21T17:39:58.389Z,100664.16
2022-08-21T17:42:27.680Z,100662.53
2022-08-21T17:44:57.847Z,100669.41
2022-08-21T17:47:27.301Z,100668.28
2022-08-21T17:49:57.532Z,100666.09
2022-08-21T17:52:26.680Z,100662.25
2022-08-21T17:54:54.740Z,100667.75
2022-08-21T17:57:28.388Z,100665.53
2022-08-21T17:59:58.473Z,100657.28
2022-08-21T18:02:31.768Z,100668.03
2022-08-21T18:05:01.242Z,100659.47
2022-08-21T18:07:40.094Z,100651.03
2022-08-21T18:10:12.727Z,100657.31
2022-08-21T18:12:46.301Z,100643.00
2022-08-21T18:15:18.709Z,100657.03
2022-08-21T18:17:50.336Z,100654.59
2022-08-21T18:20:22.883Z,100657.34
2022-08-21T18:22:51.192Z,100656.47
2022-08-21T18:25:20.570Z,100644.09
2022-08-21T18:27:49.985Z,100640.56
2022-08-21T18:30:22.156Z,100644.13
2022-08-21T18:32:53.707Z,100646.00
2022-08-21T18:35:22.828Z,100643.88
2022-08-21T18:37:52.076Z,100634.75
2022-08-21T18:40:21.293Z,100632.53
2022-08-21T18:42:55.567Z,100635.91
2022-08-21T18:45:28.750Z,100634.75
2022-08-21T18:47:58.801Z,100633.06
2022-08-21T18:50:29.634Z,100632.78
2022-08-21T18:53:00.697Z,100631.97
2022-08-21T18:55:32.026Z,100628.13
2022-08-21T18:58:02.813Z,100617.94
2022-08-21T19:00:38.204Z,100624.81
2022-08-21T19:03:16.452Z,100626.22
2022-08-21T19:05:54.527Z,100624.06
2022-08-21T19:08:27.644Z,100624.28
2022-08-21T19:10:58.796Z,100621.28
2022-08-21T19:13:28.903Z,100611.66
2022-08-21T19:16:03.530Z,100612.75
2022-08-21T19:18:37.840Z,100612.50
2022-08-21T19:21:08.654Z,100618.56
2022-08-21T19:23:37.924Z,100620.50
2022-08-21T19:26:12.594Z,100612.22
2022-08-21T19:28:47.164Z,100608.91
2022-08-21T19:31:26.912Z,100611.69
2022-08-21T19:34:18.736Z,100618.59
2022-08-21T19:36:47.153Z,100618.88
2022-08-21T19:39:18.043Z,100618.63
2022-08-21T19:41:51.551Z,100613.38
2022-08-21T19:44:25.406Z,100617.53
2022-08-21T19:46:55.253Z,100607.06
2022-08-21T19:49:30.084Z,100611.19
2022-08-21T19:52:07.077Z,100612.84
2022-08-21T19:54:57.852Z,100613.44
2022-08-21T19:57:26.734Z,100608.47
2022-08-21T19:59:55.170Z,100606.00
2022-08-21T20:02:28.790Z,100605.47
2022-08-21T20:04:56.958Z,100599.41
2022-08-21T20:07:27.191Z,100603.03
2022-08-21T20:09:56.946Z,100603.81
2022-08-21T20:12:26.915Z,100606.84
2022-08-21T20:14:55.308Z,100603.53
2022-08-21T20:17:26.184Z,100599.97
2022-08-21T20:19:55.130Z,100594.22
2022-08-21T20:22:24.376Z,100590.38
2022-08-21T20:24:53.778Z,100582.34
2022-08-21T20:27:26.391Z,100589.78
2022-08-21T20:29:56.753Z,100590.59
2022-08-21T20:32:27.493Z,100576.31
2022-08-21T20:34:56.777Z,100577.13
2022-08-21T20:37:36.330Z,100569.97
2022-08-21T20:40:11.585Z,100570.25
2022-08-21T20:42:51.152Z,100562.81
2022-08-21T20:45:27.261Z,100566.66
2022-08-21T20:48:04.016Z,100561.19
2022-08-21T20:50:42.170Z,100569.97
2022-08-21T20:53:23.858Z,100572.72
2022-08-21T20:55:56.839Z,100563.34
2022-08-21T20:58:41.402Z,100565.56
2022-08-21T21:01:10.672Z,100565.56
2022-08-21T21:03:51.278Z,100562.25
2022-08-21T21:06:28.591Z,100565.28
2022-08-21T21:09:06.076Z,100569.44
2022-08-21T21:11:50.024Z,100577.97
2022-08-21T21:14:30.426Z,100569.72
2022-08-21T21:17:08.129Z,100568.34
2022-08-21T21:19:56.153Z,100566.13
2022-08-21T21:22:38.911Z,100563.97
2022-08-21T21:25:40.442Z,100567.78
2022-08-21T21:28:35.197Z,100564.50
2022-08-21T21:31:03.726Z,100568.63
2022-08-21T21:33:31.763Z,100566.19
2022-08-21T21:36:10.563Z,100564.81
2022-08-21T21:38:51.658Z,100561.22
2022-08-21T21:42:11.466Z,100563.44
2022-08-21T21:45:03.750Z,100574.97
2022-08-21T21:47:50.556Z,100567.84
2022-08-21T21:50:43.652Z,100571.69
2022-08-21T21:53:23.062Z,100568.09
2022-08-21T21:56:21.951Z,100565.66
2022-08-21T21:59:09.986Z,100574.19
2022-08-21T22:01:57.568Z,100572.53
2022-08-21T22:04:53.987Z,100577.22
2022-08-21T22:08:00.502Z,100573.38
2022-08-21T22:10:53.778Z,100571.75
2022-08-21T22:13:48.618Z,100567.34
2022-08-21T22:16:16.867Z,100566.25
2022-08-21T22:19:02.510Z,100567.88
2022-08-21T22:21:40.308Z,100572.28
2022-08-21T22:24:25.642Z,100571.19
2022-08-21T22:27:03.220Z,100570.38
2022-08-21T22:29:52.023Z,100576.69
2022-08-21T22:32:26.338Z,100571.47
2022-08-21T22:35:09.603Z,100570.66
2022-08-21T22:37:41.645Z,100567.06
2022-08-21T22:40:15.872Z,100564.34
2022-08-21T22:42:58.523Z,100570.94
2022-08-21T22:45:29.037Z,100562.41
2022-08-21T22:48:06.172Z,100559.66
2022-08-21T22:50:46.167Z,100568.47
2022-08-21T22:53:26.672Z,100566.25
2022-08-21T22:55:59.589Z,100569.56
2022-08-21T22:58:32.104Z,100573.66
2022-08-21T23:01:23.960Z,100572.84
2022-08-21T23:03:54.300Z,100564.59
2022-08-21T23:06:46.657Z,100574.22
2022-08-21T23:09:22.385Z,100573.94
2022-08-21T23:11:51.904Z,100580.56
2022-08-21T23:14:19.754Z,100578.91
2022-08-21T23:17:27.560Z,100583.25
2022-08-21T23:20:31.025Z,100587.41
2022-08-21T23:23:35.409Z,100586.03
2022-08-21T23:26:46.949Z,100584.13
2022-08-21T23:29:51.812Z,100576.69
2022-08-21T23:32:28.410Z,100576.09
2022-08-21T23:35:52.359Z,100566.25
2022-08-21T23:38:33.160Z,100577.25
2022-08-21T23:41:39.247Z,100572.03
2022-08-21T23:44:31.540Z,100572.56
2022-08-21T23:47:39.199Z,100572.31
2022-08-21T23:50:32.514Z,100570.63
2022-08-21T23:53:20.665Z,100575.59
2022-08-21T23:55:55.388Z,100579.94
2022-08-21T23:58:32.796Z,100582.16
